.
WxDataArchive / Data Records for 2008-10-18
2008-10-17 October 2008 2008-10-19

Data Records for Saturday, 18 October 2008

Time	Temp	Chill	HIndex	Humid	Dewpt	 Wind 	HiWind	WindDir	Rain 	Barom 
-----	----	-----	------	-----	-----	------	------	-------	-----	----- 
00:00	47.4	47.4	47.4	71	38.5	0	0	---	0.00	30.174 
00:05	47.3	47.3	47.3	72	38.7	0	0	---	0.00	30.172 
00:10	47.3	47.3	47.3	73	39.1	0	0	---	0.00	30.171 
00:15	47.1	47.1	47.1	73	38.9	0	0	---	0.00	30.168 
00:20	47.0	47.0	47.0	74	39.1	0	0	---	0.00	30.167 
00:25	47.0	47.0	47.0	75	39.5	0	0	---	0.00	30.167 
00:30	46.8	46.8	46.8	74	39.0	0	0	---	0.00	30.168 
00:35	46.8	46.8	46.8	75	39.3	0	0	---	0.00	30.170 
00:40	46.7	46.7	46.7	76	39.5	0	0	---	0.00	30.171 
00:45	46.7	46.7	46.7	75	39.2	0	0	---	0.00	30.173 
00:50	46.5	46.5	46.5	75	39.0	0	0	---	0.00	30.174 
00:55	46.5	46.5	46.5	75	39.0	0	0	---	0.00	30.173 
01:00	46.4	46.4	46.4	75	38.9	0	0	---	0.00	30.176 
01:05	46.4	46.4	46.4	76	39.3	0	0	---	0.00	30.176 
01:10	46.2	46.2	46.2	76	39.1	0	0	---	0.00	30.177 
01:15	46.1	46.1	46.1	76	39.0	0	0	---	0.00	30.176 
01:20	46.0	46.0	46.0	77	39.2	0	0	---	0.00	30.176 
01:25	45.8	45.8	45.8	77	39.0	0	0	---	0.00	30.176 
01:30	45.7	45.7	45.7	77	38.9	0	0	---	0.00	30.177 
01:35	45.4	45.4	45.4	77	38.6	0	0	---	0.00	30.177 
01:40	45.2	45.2	45.2	77	38.4	0	0	---	0.00	30.177 
01:45	45.1	45.1	45.1	78	38.7	0	0	---	0.00	30.178 
01:50	45.1	45.1	45.1	79	39.0	0	0	---	0.00	30.179 
01:55	45.1	45.1	45.1	80	39.3	0	0	---	0.00	30.178 
02:00	45.1	45.1	45.1	81	39.6	0	0	---	0.00	30.179 
02:05	45.1	45.1	45.1	80	39.3	0	0	---	0.00	30.180 
02:10	45.1	45.1	45.1	80	39.3	0	0	---	0.00	30.181 
02:15	45.2	45.2	45.2	80	39.4	0	0	---	0.00	30.181 
02:20	45.2	45.2	45.2	80	39.4	0	0	---	0.00	30.182 
02:25	45.2	45.2	45.2	80	39.4	0	0	---	0.00	30.183 
02:30	45.2	45.2	45.2	80	39.4	0	0	---	0.00	30.183 
02:35	45.2	45.2	45.2	80	39.4	0	0	---	0.00	30.183 
02:40	45.2	45.2	45.2	80	39.4	0	0	---	0.00	30.184 
02:45	45.2	45.2	45.2	79	39.1	0	0	---	0.00	30.185 
02:50	45.1	45.1	45.1	80	39.3	0	0	---	0.00	30.183 
02:55	45.1	45.1	45.1	80	39.3	0	0	---	0.00	30.182 
03:00	44.9	44.9	44.9	80	39.1	0	0	---	0.00	30.182 
03:05	44.9	44.9	44.9	81	39.4	0	0	---	0.00	30.184 
03:10	44.9	44.9	44.9	81	39.4	0	0	---	0.00	30.184 
03:15	44.8	44.8	44.8	81	39.3	0	0	---	0.00	30.184 
03:20	44.8	44.8	44.8	81	39.3	0	1	68	0.00	30.186 
03:25	44.8	44.8	44.8	81	39.3	0	1	68	0.00	30.184 
03:30	44.8	44.8	44.8	81	39.3	0	0	---	0.00	30.184 
03:35	44.8	44.8	44.8	81	39.3	0	0	---	0.00	30.185 
03:40	44.6	44.6	44.6	81	39.1	0	0	---	0.00	30.187 
03:45	44.6	44.6	44.6	81	39.1	0	0	---	0.00	30.189 
03:50	44.5	44.5	44.5	81	39.0	0	0	---	0.00	30.191 
03:55	44.3	44.3	44.3	81	38.8	0	0	---	0.00	30.192 
04:00	44.2	44.2	44.2	82	39.1	0	0	---	0.00	30.193 
04:05	44.1	44.1	44.1	82	39.0	0	0	---	0.00	30.195 
04:10	43.9	43.9	43.9	82	38.8	0	0	---	0.00	30.195 
04:15	43.8	43.8	43.8	82	38.7	0	0	---	0.00	30.196 
04:20	43.6	43.6	43.6	83	38.8	0	0	---	0.00	30.197 
04:25	43.5	43.5	43.5	84	39.0	0	0	---	0.00	30.198 
04:30	43.3	43.3	43.3	84	38.8	0	0	---	0.00	30.200 
04:35	43.3	43.3	43.3	84	38.8	0	0	---	0.00	30.203 
04:40	43.3	43.3	43.3	84	38.8	0	0	---	0.00	30.207 
04:45	43.5	43.5	43.5	84	39.0	0	0	---	0.00	30.208 
04:50	43.5	43.5	43.5	84	39.0	0	0	---	0.00	30.208 
04:55	43.5	43.5	43.5	84	39.0	0	0	---	0.00	30.209 
05:00	43.5	43.5	43.5	84	39.0	0	0	---	0.00	30.211 
05:05	43.5	43.5	43.5	84	39.0	0	0	---	0.00	30.214 
05:10	43.5	43.5	43.5	84	39.0	0	0	---	0.00	30.214 
05:15	43.5	43.5	43.5	84	39.0	0	0	---	0.00	30.216 
05:20	43.5	43.5	43.5	84	39.0	0	0	---	0.00	30.216 
05:25	43.5	43.5	43.5	84	39.0	0	0	---	0.00	30.218 
05:30	43.3	43.3	43.3	84	38.8	0	0	---	0.00	30.222 
05:35	43.3	43.3	43.3	84	38.8	0	0	---	0.00	30.224 
05:40	43.3	43.3	43.3	84	38.8	0	0	---	0.00	30.227 
05:45	43.5	43.5	43.5	84	39.0	0	0	---	0.00	30.228 
05:50	43.6	43.6	43.6	84	39.1	0	0	---	0.00	30.228 
05:55	43.6	43.6	43.6	84	39.1	0	0	---	0.00	30.229 
06:00	43.8	43.8	43.8	84	39.3	0	0	---	0.00	30.229 
06:05	43.9	43.9	43.9	84	39.4	0	0	---	0.00	30.231 
06:10	43.9	43.9	43.9	84	39.4	0	0	---	0.00	30.231 
06:15	44.1	44.1	44.1	84	39.6	0	0	---	0.00	30.231 
06:20	44.1	44.1	44.1	84	39.6	0	0	---	0.00	30.231 
06:25	43.9	43.9	43.9	84	39.4	0	0	---	0.00	30.231 
06:30	43.8	43.8	43.8	84	39.3	0	0	---	0.00	30.231 
06:35	43.5	43.5	43.5	84	39.0	0	0	---	0.00	30.231 
06:40	43.2	43.2	43.2	84	38.7	0	0	---	0.00	30.232 
06:45	42.9	42.9	42.9	84	38.4	0	0	---	0.00	30.232 
06:50	42.5	42.5	42.5	85	38.3	0	0	---	0.00	30.235 
06:55	42.2	42.2	42.2	85	38.0	0	0	---	0.00	30.236 
07:00	41.9	41.9	41.9	86	38.0	0	0	---	0.00	30.238 
07:05	41.6	41.6	41.6	86	37.7	0	0	---	0.00	30.241 
07:10	41.3	41.3	41.3	87	37.7	0	0	---	0.00	30.245 
07:15	41.2	41.2	41.2	88	37.9	0	0	---	0.00	30.248 
07:20	41.1	41.1	41.1	88	37.8	0	0	---	0.00	30.250 
07:25	41.1	41.1	41.1	88	37.8	0	0	---	0.00	30.251 
07:30	41.1	41.1	41.1	89	38.1	0	0	---	0.00	30.253 
07:35	41.1	41.1	41.1	89	38.1	0	0	---	0.00	30.256 
07:40	41.1	41.1	41.1	90	38.4	0	0	---	0.00	30.261 
07:45	41.1	41.1	41.1	90	38.4	0	0	---	0.00	30.263 
07:50	41.2	41.2	41.2	90	38.5	0	0	---	0.00	30.265 
07:55	41.5	41.5	41.5	91	39.1	0	0	---	0.00	30.266 
08:00	41.9	41.9	41.9	91	39.5	0	0	---	0.00	30.266 
08:05	42.3	42.3	42.3	91	39.9	0	0	---	0.00	30.270 
08:10	42.8	42.8	42.8	91	40.4	0	1	68	0.00	30.274 
08:15	43.3	43.3	43.3	90	40.6	0	0	---	0.00	30.278 
08:20	43.9	43.9	43.9	89	40.9	0	1	68	0.00	30.279 
08:25	44.5	44.5	44.5	87	40.9	0	1	68	0.00	30.279 
08:30	45.1	45.1	45.1	85	40.9	0	1	68	0.00	30.279 
08:35	45.7	45.7	45.7	83	40.8	0	2	68	0.00	30.279 
08:40	46.0	46.0	46.0	81	40.5	0	2	68	0.00	30.279 
08:45	46.4	46.4	46.4	79	40.2	0	2	68	0.00	30.280 
08:50	46.8	46.8	46.8	78	40.3	0	3	90	0.00	30.280 
08:55	47.3	47.3	47.3	77	40.5	0	3	90	0.00	30.281 
09:00	48.0	48.0	48.0	75	40.5	1	3	90	0.00	30.283 
09:05	48.6	48.6	48.6	73	40.3	1	3	90	0.00	30.283 
09:10	49.5	49.5	49.5	70	40.1	2	7	90	0.00	30.287 
09:15	50.1	50.1	50.1	70	40.7	1	4	90	0.00	30.287 
09:20	50.4	50.4	50.4	69	40.6	1	3	112	0.00	30.290 
09:25	50.7	50.7	50.7	70	41.3	1	3	135	0.00	30.288 
09:30	50.8	50.8	50.8	69	41.0	1	5	112	0.00	30.289 
09:35	50.8	50.8	50.8	68	40.6	1	3	112	0.00	30.291 
09:40	51.0	51.0	51.0	66	40.0	1	4	112	0.00	30.291 
09:45	51.4	51.4	51.4	66	40.4	2	4	90	0.00	30.291 
09:50	51.9	51.9	51.9	65	40.5	1	3	112	0.00	30.290 
09:55	52.2	52.2	52.2	61	39.2	2	6	112	0.00	30.290 
10:00	52.3	52.3	52.3	63	40.1	1	4	112	0.00	30.289 
10:05	52.8	52.8	52.8	64	41.0	0	3	90	0.00	30.287 
10:10	53.2	53.2	53.2	60	39.7	2	5	112	0.00	30.288 
10:15	53.5	53.5	53.5	58	39.1	1	4	112	0.00	30.287 
10:20	53.8	53.8	53.8	57	38.9	1	3	112	0.00	30.288 
10:25	54.1	54.1	54.1	57	39.2	0	2	112	0.00	30.288 
10:30	54.5	54.5	54.5	57	39.6	1	4	112	0.00	30.286 
10:35	55.0	55.0	55.0	58	40.5	1	2	112	0.00	30.286 
10:40	55.0	55.0	55.0	53	38.2	2	4	112	0.00	30.286 
10:45	55.1	55.1	55.1	53	38.3	2	7	90	0.00	30.287 
10:50	55.4	55.4	55.4	53	38.6	1	5	90	0.00	30.286 
10:55	55.7	55.7	55.7	54	39.3	1	5	112	0.00	30.286 
11:00	55.7	55.7	55.7	52	38.3	2	5	90	0.00	30.286 
11:05	55.9	55.9	55.9	54	39.5	1	4	90	0.00	30.288 
11:10	55.9	55.9	55.9	51	38.0	2	7	112	0.00	30.288 
11:15	55.7	55.7	55.7	53	38.8	0	2	112	0.00	30.289 
11:20	56.0	56.0	56.0	50	37.6	1	6	112	0.00	30.289 
11:25	56.0	56.0	56.0	46	35.5	2	6	90	0.00	30.292 
11:30	55.4	55.4	55.4	49	36.6	2	4	90	0.00	30.292 
11:35	55.0	55.0	55.0	51	37.2	1	4	90	0.00	30.290 
11:40	55.3	55.3	55.3	49	36.5	2	5	90	0.00	30.293 
11:45	55.7	55.7	55.7	49	36.8	1	3	90	0.00	30.291 
11:50	55.7	55.7	55.7	47	35.8	2	6	90	0.00	30.288 
11:55	55.9	55.9	55.9	46	35.4	3	6	112	0.00	30.288 
12:00	56.2	56.2	56.2	47	36.2	2	5	112	0.00	30.287 
12:05	56.3	56.3	56.3	47	36.3	1	2	90	0.00	30.287 
12:10	56.6	56.6	56.6	47	36.6	1	3	68	0.00	30.286 
12:15	56.6	56.6	56.6	45	35.5	1	4	90	0.00	30.282 
12:20	56.5	56.5	56.5	46	36.0	1	3	90	0.00	30.281 
12:25	56.5	56.5	56.5	50	38.1	1	5	112	0.00	30.278 
12:30	56.7	56.7	56.7	46	36.2	1	3	112	0.00	30.274 
12:35	56.9	56.9	56.9	49	37.9	1	4	90	0.00	30.273 
12:40	56.9	56.9	56.9	44	35.2	2	5	112	0.00	30.272 
12:45	56.7	56.7	56.7	46	36.2	0	3	45	0.00	30.273 
12:50	56.3	56.3	56.3	49	37.4	0	1	45	0.00	30.272 
12:55	56.0	56.0	56.0	46	35.5	0	1	45	0.00	30.272 
13:00	56.3	56.3	56.3	47	36.3	1	6	68	0.00	30.271 
13:05	56.6	56.6	56.6	42	33.8	0	2	68	0.00	30.269 
13:10	56.9	56.9	56.9	46	36.3	1	4	90	0.00	30.266 
13:15	56.7	56.7	56.7	43	34.5	1	6	90	0.00	30.268 
13:20	56.2	56.2	56.2	42	33.4	2	5	112	0.00	30.267 
13:25	56.3	56.3	56.3	46	35.8	0	3	112	0.00	30.266 
13:30	56.6	56.6	56.6	44	34.9	1	4	112	0.00	30.262 
13:35	56.9	56.9	56.9	43	34.6	1	4	112	0.00	30.261 
13:40	57.0	57.0	57.0	43	34.7	0	2	90	0.00	30.261 
13:45	56.6	56.6	56.6	43	34.4	0	1	90	0.00	30.264 
13:50	56.0	56.0	56.0	45	35.0	0	1	90	0.00	30.265 
13:55	55.7	55.7	55.7	44	34.1	0	1	90	0.00	30.266 
14:00	56.0	56.0	56.0	47	36.1	1	3	90	0.00	30.265 
14:05	56.6	56.6	56.6	42	33.8	0	2	90	0.00	30.265 
14:10	56.9	56.9	56.9	39	32.2	0	2	90	0.00	30.261 
14:15	57.0	57.0	57.0	38	31.6	1	3	90	0.00	30.258 
14:20	57.0	57.0	57.0	38	31.6	0	3	90	0.00	30.258 
14:25	57.2	57.2	57.2	40	33.1	1	5	90	0.00	30.258 
14:30	57.3	57.3	57.3	40	33.2	0	2	112	0.00	30.258 
14:35	57.8	57.8	57.8	39	33.0	0	3	90	0.00	30.258 
14:40	58.0	58.0	58.0	40	33.8	1	3	112	0.00	30.259 
14:45	58.0	58.0	58.0	41	34.4	1	2	90	0.00	30.261 
14:50	57.6	57.6	57.6	39	32.8	1	6	112	0.00	30.262 
14:55	57.5	57.5	57.5	39	32.7	0	1	112	0.00	30.263 
15:00	57.2	57.2	57.2	37	31.2	0	1	90	0.00	30.267 
15:05	56.9	56.9	56.9	40	32.8	0	1	90	0.00	30.267 
15:10	56.6	56.6	56.6	41	33.2	0	1	90	0.00	30.265 
15:15	56.5	56.5	56.5	39	31.8	0	1	68	0.00	30.266 
15:20	56.7	56.7	56.7	38	31.4	1	4	68	0.00	30.267 
15:25	57.0	57.0	57.0	40	32.9	0	2	90	0.00	30.268 
15:30	57.2	57.2	57.2	37	31.2	1	6	90	0.00	30.269 
15:35	57.2	57.2	57.2	38	31.8	1	4	68	0.00	30.272 
15:40	57.2	57.2	57.2	39	32.5	0	2	68	0.00	30.272 
15:45	56.9	56.9	56.9	38	31.6	1	3	90	0.00	30.272 
15:50	56.6	56.6	56.6	38	31.3	0	2	112	0.00	30.270 
15:55	56.3	56.3	56.3	38	31.0	0	1	112	0.00	30.271 
16:00	56.0	56.0	56.0	39	31.4	0	1	112	0.00	30.269 
16:05	55.9	55.9	55.9	39	31.3	0	0	---	0.00	30.269 
16:10	55.7	55.7	55.7	40	31.8	0	1	112	0.00	30.270 
16:15	55.6	55.6	55.6	38	30.4	0	2	112	0.00	30.270 
16:20	55.6	55.6	55.6	37	29.7	0	1	112	0.00	30.270 
16:25	55.7	55.7	55.7	39	31.1	1	3	112	0.00	30.268 
16:30	55.6	55.6	55.6	38	30.4	1	3	90	0.00	30.272 
16:35	55.6	55.6	55.6	37	29.7	0	1	90	0.00	30.271 
16:40	55.4	55.4	55.4	38	30.2	0	2	90	0.00	30.274 
16:45	55.6	55.6	55.6	40	31.7	0	1	90	0.00	30.275 
16:50	55.4	55.4	55.4	41	32.1	0	1	90	0.00	30.274 
16:55	55.4	55.4	55.4	38	30.2	0	4	112	0.00	30.276 
17:00	55.4	55.4	55.4	38	30.2	1	4	112	0.00	30.277 
17:05	55.4	55.4	55.4	38	30.2	0	2	112	0.00	30.277 
17:10	55.3	55.3	55.3	41	32.0	0	1	112	0.00	30.278 
17:15	55.0	55.0	55.0	41	31.7	0	0	---	0.00	30.278 
17:20	54.7	54.7	54.7	41	31.5	0	1	112	0.00	30.279 
17:25	54.4	54.4	54.4	41	31.2	0	1	112	0.00	30.280 
17:30	54.2	54.2	54.2	43	32.2	0	0	---	0.00	30.283 
17:35	53.8	53.8	53.8	44	32.4	0	0	---	0.00	30.282 
17:40	53.5	53.5	53.5	44	32.1	0	0	---	0.00	30.282 
17:45	53.1	53.1	53.1	45	32.3	0	0	---	0.00	30.283 
17:50	52.6	52.6	52.6	46	32.4	0	0	---	0.00	30.284 
17:55	52.2	52.2	52.2	46	32.1	0	0	---	0.00	30.286 
18:00	51.6	51.6	51.6	48	32.6	0	0	---	0.00	30.288 
18:05	51.1	51.1	51.1	48	32.1	0	0	---	0.00	30.291 
18:10	50.7	50.7	50.7	50	32.7	0	0	---	0.00	30.291 
18:15	50.2	50.2	50.2	50	32.3	0	0	---	0.00	30.295 
18:20	49.5	49.5	49.5	53	33.1	0	0	---	0.00	30.296 
18:25	49.1	49.1	49.1	54	33.2	0	0	---	0.00	30.298 
18:30	48.6	48.6	48.6	55	33.2	0	0	---	0.00	30.299 
18:35	48.0	48.0	48.0	56	33.1	0	0	---	0.00	30.300 
18:40	47.6	47.6	47.6	57	33.1	0	0	---	0.00	30.301 
18:45	47.0	47.0	47.0	58	33.0	0	0	---	0.00	30.303 
18:50	46.5	46.5	46.5	61	33.8	0	0	---	0.00	30.305 
18:55	46.1	46.1	46.1	62	33.8	0	0	---	0.00	30.304 
19:00	45.7	45.7	45.7	63	33.8	0	0	---	0.00	30.307 
19:05	45.4	45.4	45.4	64	33.9	0	0	---	0.00	30.307 
19:10	45.1	45.1	45.1	65	34.0	0	0	---	0.00	30.313 
19:15	44.8	44.8	44.8	65	33.8	0	0	---	0.00	30.312 
19:20	44.5	44.5	44.5	66	33.9	0	0	---	0.00	30.314 
19:25	44.1	44.1	44.1	67	33.9	0	0	---	0.00	30.314 
19:30	43.8	43.8	43.8	69	34.3	0	0	---	0.00	30.315 
19:35	43.5	43.5	43.5	69	34.0	0	0	---	0.00	30.316 
19:40	43.2	43.2	43.2	69	33.7	0	0	---	0.00	30.319 
19:45	43.1	43.1	43.1	71	34.3	0	0	---	0.00	30.319 
19:50	42.8	42.8	42.8	72	34.4	0	1	112	0.00	30.320 
19:55	42.5	42.5	42.5	73	34.5	0	0	---	0.00	30.320 
20:00	42.3	42.3	42.3	71	33.6	0	0	---	0.00	30.320 
20:05	42.1	42.1	42.1	69	32.7	0	0	---	0.00	30.316 
20:10	42.1	42.1	42.1	69	32.7	0	0	---	0.00	30.317 
20:15	41.9	41.9	41.9	69	32.5	0	0	---	0.00	30.319 
20:20	41.9	41.9	41.9	68	32.1	0	0	---	0.00	30.319 
20:25	41.9	41.9	41.9	68	32.1	0	0	---	0.00	30.320 
20:30	41.9	41.9	41.9	67	31.8	0	0	---	0.00	30.321 
20:35	41.8	41.8	41.8	67	31.7	0	0	---	0.00	30.324 
20:40	41.8	41.8	41.8	67	31.7	0	0	---	0.00	30.322 
20:45	41.6	41.6	41.6	68	31.8	0	0	---	0.00	30.323 
20:50	41.3	41.3	41.3	69	31.9	0	0	---	0.00	30.325 
20:55	41.2	41.2	41.2	69	31.8	0	0	---	0.00	30.326 
21:00	41.1	41.1	41.1	69	31.7	0	0	---	0.00	30.329 
21:05	41.1	41.1	41.1	69	31.7	0	0	---	0.00	30.326 
21:10	41.3	41.3	41.3	69	31.9	0	1	112	0.00	30.327 
21:15	41.6	41.6	41.6	68	31.8	0	0	---	0.00	30.326 
21:20	41.9	41.9	41.9	67	31.8	0	0	---	0.00	30.326 
21:25	42.2	42.2	42.2	67	32.0	0	0	---	0.00	30.326 
21:30	42.2	42.2	42.2	67	32.0	0	0	---	0.00	30.327 
21:35	42.1	42.1	42.1	67	31.9	0	0	---	0.00	30.327 
21:40	41.9	41.9	41.9	69	32.5	0	0	---	0.00	30.328 
21:45	41.6	41.6	41.6	69	32.2	0	0	---	0.00	30.327 
21:50	41.5	41.5	41.5	69	32.1	0	0	---	0.00	30.328 
21:55	41.2	41.2	41.2	70	32.2	0	0	---	0.00	30.329 
22:00	41.1	41.1	41.1	71	32.4	0	0	---	0.00	30.330 
22:05	40.9	40.9	40.9	71	32.2	0	0	---	0.00	30.328 
22:10	40.6	40.6	40.6	72	32.3	0	0	---	0.00	30.331 
22:15	40.5	40.5	40.5	72	32.2	0	0	---	0.00	30.332 
22:20	40.3	40.3	40.3	73	32.3	0	0	---	0.00	30.333 
22:25	40.1	40.1	40.1	74	32.5	0	0	---	0.00	30.333 
22:30	39.9	39.9	39.9	75	32.6	0	0	---	0.00	30.336 
22:35	39.6	39.6	39.6	76	32.7	0	0	---	0.00	30.336 
22:40	39.5	39.5	39.5	76	32.6	0	0	---	0.00	30.336 
22:45	39.3	39.3	39.3	77	32.7	0	0	---	0.00	30.336 
22:50	39.1	39.1	39.1	77	32.5	0	0	---	0.00	30.335 
22:55	38.9	38.9	38.9	78	32.6	0	0	---	0.00	30.335 
23:00	38.6	38.6	38.6	79	32.7	0	0	---	0.00	30.332 
23:05	38.5	38.5	38.5	79	32.6	0	0	---	0.00	30.331 
23:10	38.3	38.3	38.3	80	32.7	0	0	---	0.00	30.330 
23:15	38.0	38.0	38.0	81	32.7	0	0	---	0.00	30.329 
23:20	37.9	37.9	37.9	82	32.9	0	0	---	0.00	30.330 
23:25	37.8	37.8	37.8	83	33.1	0	0	---	0.00	30.330 
23:30	37.8	37.8	37.8	83	33.1	0	0	---	0.00	30.329 
23:35	37.6	37.6	37.6	84	33.2	0	0	---	0.00	30.327 
23:40	37.6	37.6	37.6	84	33.2	0	0	---	0.00	30.328 
23:45	37.5	37.5	37.5	85	33.4	0	0	---	0.00	30.328 
23:50	37.3	37.3	37.3	85	33.2	0	0	---	0.00	30.328 
23:55	37.2	37.2	37.2	85	33.1	0	0	---	0.00	30.328 

CoCoRaHS
IN-AL-39
A2 Web Hosting
Creative Commons License
GoDaddy
Look for:

loaded 2017-10-17 00:13:32 • last modified 2010-11-18 10:43:29
Privacy PolicyDisclaimer
• wx.awcolley.com is powered by PmWiki v.2002016 •
• all content (unless otherwise noted) © 2017 A W Colley